Time;durP1;ratioP1;P1;durP2;ratioP2;P2;SDS_P1;SDS_P2;PMS_P1;PMS_P2;Temp;Humidity;BMP_temperature;BMP_pressure;BME280_temperature;BME280_humidity;BME280_pressure;Samples;Min_cycle;Max_cycle;Signal;HPM_P1;HPM_P2
2023/06/21 00:01:58;204230.00;0.68;353.20;0.00;0.00;0.62;;;;;25.70;1.00;;;;;;2276289;61;1044;-85
2023/06/21 00:07:48;490760.00;1.64;845.92;64239.00;0.21;111.80;;;;;25.60;1.00;;;;;;2276115;61;1345;-87
2023/06/21 00:10:16;2306550.00;7.69;4273.95;138744.00;0.46;240.41;;;;;25.40;1.00;;;;;;2276160;61;1824;-85
2023/06/21 00:12:43;1348074.00;4.49;2360.36;81402.00;0.27;141.46;;;;;25.50;1.00;;;;;;2276237;61;1219;-85
2023/06/21 00:15:11;1626628.00;5.42;2883.74;203800.00;0.68;352.46;;;;;25.10;1.00;;;;;;2276242;61;978;-85
2023/06/21 00:17:38;1422224.00;4.74;2497.61;118454.00;0.39;205.42;;;;;24.90;1.00;;;;;;2276081;61;2001;-84
2023/06/21 00:20:09;1387087.00;4.62;2432.40;149232.00;0.50;258.48;;;;;24.70;1.00;;;;;;2276217;61;1148;-86
2023/06/21 00:22:35;122025544.00;406.75;73608280.00;156557.00;0.52;271.11;;;;;24.70;1.00;;;;;;2276332;61;1134;-85
2023/06/21 00:25:03;973716.00;3.25;1685.97;108083.00;0.36;187.52;;;;;24.70;1.00;;;;;;2276071;61;1127;-85
2023/06/21 00:27:31;559496.00;1.86;964.33;100453.00;0.33;174.35;;;;;24.60;1.00;;;;;;2276059;61;1344;-86
2023/06/21 00:29:58;588013.00;1.96;1013.53;136866.00;0.46;237.17;;;;;24.90;1.00;;;;;;2276244;61;1033;-85
2023/06/21 00:32:25;347719.00;1.16;599.94;72811.00;0.24;126.62;;;;;25.10;1.00;;;;;;2276123;61;1173;-85
2023/06/21 00:34:52;572545.00;1.91;986.84;142025.00;0.47;246.06;;;;;25.00;1.50;;;;;;2276262;61;1603;-86
2023/06/21 00:37:19;200582.00;0.67;346.93;0.00;0.00;0.62;;;;;24.80;2.60;;;;;;2276075;61;1992;-86
2023/06/21 00:39:46;154147.00;0.51;266.95;0.00;0.00;0.62;;;;;24.80;2.70;;;;;;2276119;61;1044;-85
2023/06/21 00:42:13;251120.00;0.84;433.88;0.00;0.00;0.62;;;;;24.90;2.10;;;;;;2276167;61;1016;-86
2023/06/21 00:44:41;159497.00;0.53;276.17;0.00;0.00;0.62;;;;;25.10;2.70;;;;;;2275799;61;2049;-85
2023/06/21 00:47:08;128062.00;0.43;221.99;0.00;0.00;0.62;;;;;25.30;1.80;;;;;;2276074;61;1270;-86
2023/06/21 00:49:35;443768.00;1.48;765.06;64268.00;0.21;111.85;;;;;25.30;2.10;;;;;;2276169;61;1030;-84
2023/06/21 00:52:05;149936.00;0.50;259.70;0.00;0.00;0.62;;;;;25.30;2.40;;;;;;2276132;61;1062;-85
2023/06/21 00:54:35;112029.00;0.37;194.33;0.00;0.00;0.62;;;;;24.80;3.80;;;;;;2276011;61;1743;-85
2023/06/21 00:57:03;56386.00;0.19;98.23;0.00;0.00;0.62;;;;;24.90;3.70;;;;;;2275956;61;2010;-83
2023/06/21 00:59:30;32552.00;0.11;57.00;0.00;0.00;0.62;;;;;25.00;4.00;;;;;;2276001;61;1122;-84
2023/06/21 01:02:01;844373.00;2.81;1458.62;106898.00;0.36;185.48;;;;;25.00;3.40;;;;;;2276029;61;1269;-84
2023/06/21 01:04:31;1055001.00;3.52;1830.13;157075.00;0.52;272.00;;;;;24.90;3.90;;;;;;2275992;61;1157;-86
2023/06/21 01:07:09;1599149.00;5.33;2831.11;211704.00;0.71;366.07;;;;;24.90;3.90;;;;;;2276014;61;1373;-86
2023/06/21 01:09:46;1893840.00;6.31;3408.57;305811.00;1.02;527.91;;;;;24.90;3.90;;;;;;2276154;61;1085;-85
2023/06/21 01:12:28;1732817.00;5.78;3089.37;147150.00;0.49;254.90;;;;;24.80;4.10;;;;;;2275915;61;1130;-85
2023/06/21 01:15:02;1543190.00;5.14;2724.66;200816.00;0.67;347.33;;;;;24.50;6.30;;;;;;2276043;61;976;-86
2023/06/21 01:17:35;1968822.00;6.56;3560.50;331976.00;1.11;572.88;;;;;24.60;5.70;;;;;;2275902;61;1910;-84
2023/06/21 01:20:08;1470389.00;4.90;2587.52;127482.00;0.42;220.99;;;;;24.60;4.80;;;;;;2276018;61;946;-86
2023/06/21 01:22:46;1382477.00;4.61;2423.86;121920.00;0.41;211.39;;;;;24.40;4.30;;;;;;2275999;61;1086;-85
2023/06/21 01:25:28;918678.00;3.06;1588.95;124864.00;0.42;216.47;;;;;24.40;5.40;;;;;;2275851;61;1091;-85
2023/06/21 01:28:11;1063763.00;3.55;1845.74;122957.00;0.41;213.18;;;;;24.40;4.90;;;;;;2275965;61;1487;-85
2023/06/21 01:30:41;654975.00;2.18;1129.24;163101.00;0.54;282.38;;;;;24.30;5.00;;;;;;2276080;61;1119;-87
2023/06/21 01:33:10;131886.00;0.44;228.58;12433.00;0.04;22.16;;;;;24.40;4.40;;;;;;2276047;61;927;-85
2023/06/21 01:35:37;73789.00;0.25;128.31;0.00;0.00;0.62;;;;;24.70;3.80;;;;;;2275961;61;999;-86
2023/06/21 01:38:04;280414.00;0.93;484.25;0.00;0.00;0.62;;;;;24.50;3.90;;;;;;2275919;61;2016;-88
2023/06/21 01:40:33;392732.00;1.31;677.31;142464.00;0.47;246.82;;;;;24.60;3.70;;;;;;2275815;61;1201;-86
2023/06/21 01:43:00;167543.00;0.56;290.03;0.00;0.00;0.62;;;;;24.60;3.70;;;;;;2275973;61;1121;-84
2023/06/21 01:45:27;232574.00;0.78;401.98;0.00;0.00;0.62;;;;;24.60;3.80;;;;;;2275842;61;1141;-84
2023/06/21 01:47:58;228253.00;0.76;394.54;0.00;0.00;0.62;;;;;24.60;3.10;;;;;;2275962;61;1413;-85
2023/06/21 01:50:26;164666.00;0.55;285.08;0.00;0.00;0.62;;;;;24.70;2.70;;;;;;2275970;61;1149;-85
2023/06/21 01:52:54;160263.00;0.53;277.49;0.00;0.00;0.62;;;;;24.60;2.40;;;;;;2275898;61;1137;-85
2023/06/21 01:55:22;79953.00;0.27;138.96;0.00;0.00;0.62;;;;;24.50;3.10;;;;;;2275784;61;1076;-87
2023/06/21 01:57:51;1614643.00;5.38;2860.76;152901.00;0.51;264.81;;;;;24.30;3.40;;;;;;2275848;61;2000;-85
2023/06/21 02:00:21;1780995.00;5.94;3183.90;192875.00;0.64;333.66;;;;;24.50;3.70;;;;;;2275944;61;1207;-86
2023/06/21 02:02:50;841140.00;2.80;1452.97;85089.00;0.28;147.83;;;;;24.30;3.70;;;;;;2275990;61;1119;-86
2023/06/21 02:05:20;459251.00;1.53;791.70;118881.00;0.40;206.15;;;;;24.40;3.60;;;;;;2275976;61;1108;-88
2023/06/21 02:07:49;341489.00;1.14;589.23;83706.00;0.28;145.44;;;;;24.50;2.30;;;;;;2275822;61;1291;-87
2023/06/21 02:10:18;120923.00;0.40;209.67;0.00;0.00;0.62;;;;;24.30;2.60;;;;;;2275890;61;1115;-84
2023/06/21 02:12:48;819358.00;2.73;1414.91;158539.00;0.53;274.52;;;;;24.30;3.50;;;;;;2275799;61;1169;-86
2023/06/21 02:15:15;117781.00;0.39;204.25;0.00;0.00;0.62;;;;;24.50;3.60;;;;;;2275886;61;1138;-84
2023/06/21 02:17:48;367976.00;1.23;634.76;86928.00;0.29;151.00;;;;;24.30;3.50;;;;;;2275767;61;1923;-85
2023/06/21 02:21:02;183564.00;0.61;317.63;0.00;0.00;0.62;;;;;24.20;4.50;;;;;;2275956;61;1040;-84
2023/06/21 02:23:31;12118.00;0.04;21.62;0.00;0.00;0.62;;;;;24.10;4.90;;;;;;2275781;61;1148;-86
2023/06/21 02:25:58;80701.00;0.27;140.25;0.00;0.00;0.62;;;;;24.30;4.10;;;;;;2275740;61;1341;-86
2023/06/21 02:28:24;359319.00;1.20;619.88;13143.00;0.04;23.39;;;;;24.10;4.10;;;;;;2275883;61;1011;-86
2023/06/21 02:30:51;436039.00;1.45;751.77;61951.00;0.21;107.85;;;;;23.90;4.20;;;;;;2275884;61;1008;-85
2023/06/21 02:33:18;303413.00;1.01;523.79;0.00;0.00;0.62;;;;;23.90;4.10;;;;;;2275841;61;1006;-85
2023/06/21 02:35:45;142848.00;0.48;247.48;38289.00;0.13;66.93;;;;;23.60;5.80;;;;;;2275816;61;908;-85
2023/06/21 02:38:12;793165.00;2.64;1369.21;91203.00;0.30;158.38;;;;;23.70;6.60;;;;;;2275782;61;2017;-84
2023/06/21 02:40:40;417766.00;1.39;720.35;17249.00;0.06;30.51;;;;;23.80;5.90;;;;;;2275889;61;1034;-87
2023/06/21 02:43:07;188100.00;0.63;325.44;41255.00;0.14;72.06;;;;;23.60;7.10;;;;;;2275857;61;1050;-85
2023/06/21 02:45:35;1088157.00;3.63;1889.26;73479.00;0.24;127.77;;;;;23.60;7.50;;;;;;2275831;61;1076;-89
2023/06/21 02:48:04;1859665.00;6.20;3340.04;135797.00;0.45;235.32;;;;;23.70;7.90;;;;;;2275728;61;1396;-86
2023/06/21 02:50:31;530956.00;1.77;915.14;134258.00;0.45;232.67;;;;;23.80;7.10;;;;;;2275758;61;999;-85
2023/06/21 02:52:58;553412.00;1.84;953.84;107233.00;0.36;186.06;;;;;24.00;6.50;;;;;;2275831;61;1015;-86
2023/06/21 02:55:24;0.00;0.00;0.62;0.00;0.00;0.62;;;;;24.10;3.40;;;;;;2275822;61;1075;-86
2023/06/21 02:57:54;195234.00;0.65;337.72;0.00;0.00;0.62;;;;;24.10;3.30;;;;;;2275604;61;1911;-85
2023/06/21 03:00:27;334225.00;1.11;576.75;0.00;0.00;0.62;;;;;24.00;5.00;;;;;;2275681;61;1107;-86
2023/06/21 03:02:56;171697.00;0.57;297.19;0.00;0.00;0.62;;;;;23.80;6.10;;;;;;2276191;61;1138;-86
2023/06/21 03:05:23;298333.00;0.99;515.05;29972.00;0.10;52.53;;;;;23.70;6.60;;;;;;2276042;61;922;-86
2023/06/21 03:07:49;78011.00;0.26;135.60;0.00;0.00;0.62;;;;;23.80;6.20;;;;;;2276743;61;1309;-86
2023/06/21 03:10:16;568088.00;1.89;979.15;92453.00;0.31;160.54;;;;;24.00;5.70;;;;;;2276737;61;1011;-86
2023/06/21 03:12:45;135238.00;0.45;234.36;0.00;0.00;0.62;;;;;23.90;6.20;;;;;;2276828;61;1092;-86
2023/06/21 03:15:13;192818.00;0.64;333.56;0.00;0.00;0.62;;;;;23.60;8.20;;;;;;2276729;61;1025;-83
2023/06/21 03:17:41;143028.00;0.48;247.79;0.00;0.00;0.62;;;;;23.50;8.60;;;;;;2276598;61;2001;-85
2023/06/21 03:23:30;190484.00;0.63;329.54;0.00;0.00;0.62;;;;;24.00;6.60;;;;;;2276619;61;765;-85
2023/06/21 03:25:57;1379447.00;4.60;2418.26;122267.00;0.41;211.99;;;;;24.10;6.30;;;;;;2276583;61;1261;-85
2023/06/21 03:28:24;1514254.00;5.05;2669.97;183320.00;0.61;317.21;;;;;24.10;5.80;;;;;;2276750;61;1085;-85
2023/06/21 03:30:52;117413424.00;391.38;65566492.00;79519.00;0.27;138.21;;;;;24.10;5.10;;;;;;2276635;61;1126;-86
2023/06/21 03:33:19;564191.00;1.88;972.43;173091.00;0.58;299.59;;;;;24.00;6.40;;;;;;2275873;61;1078;-86
2023/06/21 03:35:46;25230.00;0.08;44.33;0.00;0.00;0.62;;;;;23.80;6.70;;;;;;2276703;61;1264;-86
2023/06/21 03:38:13;355601.00;1.19;613.49;67742.00;0.23;117.86;;;;;23.80;5.80;;;;;;2276528;61;2008;-87
2023/06/21 03:40:40;223707.00;0.75;386.72;0.00;0.00;0.62;;;;;23.80;7.10;;;;;;2276640;61;1026;-84
2023/06/21 03:43:07;261022.00;0.87;450.91;38578.00;0.13;67.43;;;;;23.90;6.30;;;;;;2276660;61;1090;-86
2023/06/21 03:45:33;655301.00;2.18;1129.81;77747.00;0.26;135.15;;;;;24.00;5.70;;;;;;2276608;61;1029;-85
2023/06/21 03:48:05;168364.00;0.56;291.45;0.00;0.00;0.62;;;;;23.80;6.20;;;;;;2276581;61;1412;-86
2023/06/21 03:50:32;293123.00;0.98;506.10;29366.00;0.10;51.49;;;;;23.40;8.00;;;;;;2276499;61;1208;-85
2023/06/21 03:52:59;644186.00;2.15;1110.58;144260.00;0.48;249.91;;;;;23.60;7.50;;;;;;2276352;61;1009;-86
2023/06/21 03:55:26;579478.00;1.93;998.80;50996.00;0.17;88.91;;;;;23.80;6.00;;;;;;2276578;61;995;-86
2023/06/21 03:57:53;285326.00;0.95;492.69;4868.00;0.02;9.06;;;;;24.00;5.10;;;;;;2276514;61;2025;-83
2023/06/21 04:00:20;176189.00;0.59;304.93;0.00;0.00;0.62;;;;;24.40;4.30;;;;;;2276581;61;1077;-83
2023/06/21 04:02:47;104756.00;0.35;181.78;0.00;0.00;0.62;;;;;24.60;3.80;;;;;;2276584;61;906;-83
2023/06/21 04:05:15;89501.00;0.30;155.45;0.00;0.00;0.62;;;;;24.50;4.10;;;;;;2276583;61;1020;-84
2023/06/21 04:07:43;112278.00;0.37;194.76;0.00;0.00;0.62;;;;;24.40;4.60;;;;;;2276470;61;1613;-85
2023/06/21 04:10:11;822306.00;2.74;1420.05;54497.00;0.18;94.96;;;;;24.40;4.50;;;;;;2276587;61;1110;-86
2023/06/21 04:12:38;2085625.00;6.95;3801.65;126321.00;0.42;218.98;;;;;24.30;5.30;;;;;;2276499;61;1606;-86
2023/06/21 04:15:06;951622.00;3.17;1646.97;122405.00;0.41;212.23;;;;;24.20;5.70;;;;;;2276611;61;1072;-85
2023/06/21 04:17:33;496899.00;1.66;856.48;72001.00;0.24;125.22;;;;;24.30;5.70;;;;;;2276442;61;1392;-87
2023/06/21 04:20:00;472512.00;1.58;814.51;125770.00;0.42;218.03;;;;;24.40;5.40;;;;;;2276504;61;2001;-85
2023/06/21 04:22:29;207264.00;0.69;358.43;87048.00;0.29;151.21;;;;;24.30;4.90;;;;;;2276561;61;895;-86
2023/06/21 04:24:56;367608.00;1.23;634.13;110465.00;0.37;191.63;;;;;24.30;5.80;;;;;;2276524;61;1085;-84
2023/06/21 04:27:23;121516.00;0.41;210.70;0.00;0.00;0.62;;;;;24.30;5.60;;;;;;2276266;61;1298;-86
2023/06/21 04:29:50;1885810.00;6.29;3392.43;199497.00;0.66;345.06;;;;;24.50;5.50;;;;;;2280117;60;1961;-87
2023/06/21 04:32:18;129730.00;0.43;224.86;37193.00;0.12;65.03;;;;;24.60;5.60;;;;;;2280587;60;1106;-87
2023/06/21 04:34:47;366058.00;1.22;631.46;74884.00;0.25;130.20;;;;;24.50;6.00;;;;;;2280565;60;1129;-86
2023/06/21 04:37:14;125130.00;0.42;216.93;0.00;0.00;0.62;;;;;24.50;5.90;;;;;;2280511;60;1351;-86
2023/06/21 04:39:42;162851.00;0.54;281.95;0.00;0.00;0.62;;;;;24.70;5.10;;;;;;2280573;60;1911;-86
2023/06/21 04:42:09;173977.00;0.58;301.12;19082.00;0.06;33.68;;;;;24.70;5.20;;;;;;2280580;60;1002;-87
2023/06/21 04:44:36;142416.00;0.47;246.74;41109.00;0.14;71.81;;;;;24.70;4.90;;;;;;2280468;60;1632;-86
2023/06/21 04:47:03;1287248.00;4.29;2248.79;87697.00;0.29;152.33;;;;;24.80;5.40;;;;;;2280484;60;1336;-85
2023/06/21 04:49:30;1844396.00;6.15;3309.56;132127.00;0.44;229.00;;;;;24.90;4.00;;;;;;2280515;60;1119;-88
2023/06/21 04:51:58;882457.00;2.94;1525.33;115882.00;0.39;200.98;;;;;25.00;4.30;;;;;;2280509;60;1048;-86
2023/06/21 04:54:24;499538.00;1.67;861.03;79848.00;0.27;138.77;;;;;25.10;4.10;;;;;;2280569;60;1000;-85
2023/06/21 04:56:53;482472.00;1.61;831.65;82653.00;0.28;143.62;;;;;25.20;3.90;;;;;;2280409;60;1276;-86
2023/06/21 04:59:20;47312.00;0.16;82.54;0.00;0.00;0.62;;;;;25.10;3.30;;;;;;2280380;60;1919;-87
2023/06/21 05:01:47;375109.00;1.25;647.02;62096.00;0.21;108.10;;;;;25.20;3.10;;;;;;2280402;60;1774;-88
2023/06/21 05:04:13;296481.00;0.99;511.87;85410.00;0.28;148.38;;;;;25.20;4.10;;;;;;2280476;60;1068;-86
2023/06/21 05:06:41;471767.00;1.57;813.23;27191.00;0.09;47.72;;;;;25.30;3.70;;;;;;2280461;60;1336;-85
2023/06/21 05:09:09;159428.00;0.53;276.05;0.00;0.00;0.62;;;;;25.30;2.80;;;;;;2320039;40;3671;-86
2023/06/21 05:11:36;298185.00;0.99;514.80;0.00;0.00;0.62;;;;;25.30;2.60;;;;;;2284562;61;1141;-86
2023/06/21 05:14:05;393035.00;1.31;677.83;164936.00;0.55;285.54;;;;;25.40;2.90;;;;;;2284478;61;1331;-85
2023/06/21 05:16:31;298669.00;1.00;515.63;77010.00;0.26;133.87;;;;;25.70;2.10;;;;;;2284503;61;1282;-84
2023/06/21 05:18:58;199820.00;0.67;345.61;5002.00;0.02;9.29;;;;;25.90;1.50;;;;;;2284444;61;1918;-84
2023/06/21 05:21:25;175882.00;0.59;304.40;13193.00;0.04;23.48;;;;;25.90;1.10;;;;;;2284552;61;1109;-85
2023/06/21 05:23:52;147716.00;0.49;255.87;4863.00;0.02;9.05;;;;;25.90;1.00;;;;;;2284555;61;1125;-84
2023/06/21 05:26:19;380813.00;1.27;656.82;44995.00;0.15;78.53;;;;;26.00;1.00;;;;;;2284564;61;1378;-85
2023/06/21 05:28:46;1277316.00;4.26;2230.65;76852.00;0.26;133.60;;;;;26.00;1.60;;;;;;2284214;61;1134;-85
2023/06/21 05:31:14;1813188.00;6.04;3247.53;240227.00;0.80;415.14;;;;;26.40;1.10;;;;;;2284535;61;1069;-85
2023/06/21 05:33:41;1284006.00;4.28;2242.86;94652.00;0.32;164.34;;;;;26.50;1.00;;;;;;2284510;61;1415;-87
2023/06/21 05:36:09;1484669.00;4.95;2614.31;136174.00;0.45;235.97;;;;;26.60;1.00;;;;;;2284386;61;1344;-85
2023/06/21 05:38:35;836672.00;2.79;1445.16;136010.00;0.45;235.69;;;;;26.60;1.00;;;;;;2284448;61;1991;-87
2023/06/21 05:41:02;230464.00;0.77;398.35;80978.00;0.27;140.73;;;;;26.60;1.00;;;;;;2284520;61;1008;-87
2023/06/21 05:43:29;443097.00;1.48;763.91;102098.00;0.34;177.19;;;;;26.70;1.00;;;;;;2284507;61;1061;-86
2023/06/21 05:45:56;326305.00;1.09;563.14;104592.00;0.35;181.50;;;;;26.90;1.00;;;;;;2284405;61;1298;-85
2023/06/21 05:48:25;70509.00;0.24;122.64;0.00;0.00;0.62;;;;;27.10;1.00;;;;;;2284445;61;1078;-86
2023/06/21 05:50:52;47552.00;0.16;82.95;0.00;0.00;0.62;;;;;27.30;1.00;;;;;;2284488;61;1039;-87
2023/06/21 05:53:19;117857.00;0.39;204.39;14602.00;0.05;25.92;;;;;27.30;1.00;;;;;;2284520;61;1041;-86
2023/06/21 05:55:46;358258.00;1.19;618.05;47527.00;0.16;82.91;;;;;27.20;1.00;;;;;;2284410;61;1001;-87
2023/06/21 05:58:13;378936.00;1.26;653.60;0.00;0.00;0.62;;;;;27.30;1.00;;;;;;2284315;61;1308;-87
2023/06/21 06:00:40;87337.00;0.29;151.71;0.00;0.00;0.62;;;;;28.00;1.00;;;;;;2284518;61;2016;-87
2023/06/21 06:03:08;0.00;0.00;0.62;0.00;0.00;0.62;;;;;28.30;1.00;;;;;;2284401;61;1252;-87
2023/06/21 06:05:36;207999.00;0.69;359.69;77099.00;0.26;134.03;;;;;28.60;1.00;;;;;;2284424;61;1089;-88
2023/06/21 06:08:03;111812.00;0.37;193.96;0.00;0.00;0.62;;;;;28.70;1.00;;;;;;2284436;61;1418;-86
2023/06/21 06:10:31;187121.00;0.62;323.75;59845.00;0.20;104.21;;;;;28.50;1.00;;;;;;2284324;61;1124;-86
2023/06/21 06:12:57;59180.00;0.20;103.06;0.00;0.00;0.62;;;;;28.00;1.00;;;;;;2284371;61;1020;-87
2023/06/21 06:15:24;209493.00;0.70;362.26;0.00;0.00;0.62;;;;;28.50;1.00;;;;;;2284333;61;1051;-87
2023/06/21 06:17:51;241150.00;0.80;416.73;3539.00;0.01;6.75;;;;;29.60;1.00;;;;;;2284365;61;1403;-87
2023/06/21 06:20:18;145446.00;0.48;251.96;33841.00;0.11;59.23;;;;;30.40;1.00;;;;;;2284340;61;1913;-86
2023/06/21 06:22:47;103186.00;0.34;179.07;0.00;0.00;0.62;;;;;30.70;1.00;;;;;;2284431;61;1112;-86
2023/06/21 06:25:14;14868.00;0.05;26.38;0.00;0.00;0.62;;;;;31.20;1.00;;;;;;2284401;61;1079;-87
2023/06/21 06:27:41;119359.00;0.40;206.98;0.00;0.00;0.62;;;;;32.50;1.00;;;;;;2284360;61;1406;-87
2023/06/21 06:30:09;361093.00;1.20;622.93;40168.00;0.13;70.18;;;;;33.00;1.00;;;;;;2284325;61;1062;-88
2023/06/21 06:32:35;445118.00;1.48;767.39;129190.00;0.43;223.93;;;;;33.80;1.00;;;;;;2284220;61;1175;-85
2023/06/21 06:35:02;36906.00;0.12;64.53;0.00;0.00;0.62;;;;;34.10;1.00;;;;;;2284264;61;2185;-87
2023/06/21 06:37:29;120819.00;0.40;209.50;56108.00;0.19;97.75;;;;;34.40;1.00;;;;;;2284280;61;1422;-87
2023/06/21 06:39:58;522071.00;1.74;899.83;140561.00;0.47;243.54;;;;;34.50;1.00;;;;;;2284421;61;1907;-86
2023/06/21 06:42:25;92891.00;0.31;161.30;0.00;0.00;0.62;;;;;34.40;1.00;;;;;;2285012;61;1096;-87
2023/06/21 06:44:53;16558.00;0.06;29.31;0.00;0.00;0.62;;;;;34.50;1.00;;;;;;2285044;61;1017;-87
2023/06/21 06:47:20;0.00;0.00;0.62;0.00;0.00;0.62;;;;;34.70;1.00;;;;;;2284879;61;1309;-85
2023/06/21 06:49:46;473529.00;1.58;816.26;128185.00;0.43;222.20;;;;;34.90;1.00;;;;;;2284872;61;2287;-87
2023/06/21 06:52:13;548989.00;1.83;946.22;25305.00;0.08;44.46;;;;;35.00;1.00;;;;;;2285032;61;1161;-87
2023/06/21 06:54:41;818044.00;2.73;1412.61;99083.00;0.33;171.99;;;;;35.20;1.00;;;;;;2284956;61;1164;-89
2023/06/21 06:57:09;730090.00;2.43;1259.46;67009.00;0.22;116.59;;;;;35.30;1.00;;;;;;2284814;61;1410;-86
2023/06/21 06:59:36;1587364.00;5.29;2808.61;326393.00;1.09;563.29;;;;;35.50;1.00;;;;;;2284844;61;2307;-87
2023/06/21 07:02:03;1255219.00;4.18;2190.38;125332.00;0.42;217.28;;;;;35.60;1.00;;;;;;2285006;61;1139;-86
2023/06/21 07:04:30;272064.00;0.91;469.89;72291.00;0.24;125.72;;;;;35.30;1.00;;;;;;2285024;61;1081;-87
2023/06/21 07:06:58;51495.00;0.17;89.77;0.00;0.00;0.62;;;;;35.20;1.00;;;;;;2284947;61;1300;-87
2023/06/21 07:09:25;92941.00;0.31;161.39;0.00;0.00;0.62;;;;;35.50;1.00;;;;;;2284985;61;1047;-85
2023/06/21 07:11:56;249305.00;0.83;430.76;0.00;0.00;0.62;;;;;35.40;1.00;;;;;;2284885;61;1165;-86
2023/06/21 07:14:24;14884.00;0.05;26.41;0.00;0.00;0.62;;;;;35.80;1.00;;;;;;2285005;61;1110;-88
2023/06/21 07:16:51;0.00;0.00;0.62;0.00;0.00;0.62;;;;;36.20;1.00;;;;;;2284968;61;1295;-86
2023/06/21 07:19:18;130086.00;0.43;225.48;0.00;0.00;0.62;;;;;36.90;1.00;;;;;;2284973;61;1919;-86
2023/06/21 07:21:45;28312.00;0.09;49.66;0.00;0.00;0.62;;;;;37.10;1.00;;;;;;2285037;61;1116;-85
2023/06/21 07:24:12;178172.00;0.59;308.34;23907.00;0.08;42.04;;;;;36.70;1.00;;;;;;2284926;61;2199;-86
2023/06/21 07:26:39;546627.00;1.82;942.15;28579.00;0.10;50.12;;;;;36.70;1.00;;;;;;2284968;61;1418;-86
2023/06/21 07:29:06;1474935.00;4.92;2596.04;144666.00;0.48;250.61;;;;;37.50;1.00;;;;;;2284947;61;1144;-89
2023/06/21 07:31:34;818834.00;2.73;1413.99;57301.00;0.19;99.81;;;;;38.00;1.00;;;;;;2284906;61;1039;-86
2023/06/21 07:34:01;246905.00;0.82;426.63;68205.00;0.23;118.66;;;;;37.40;1.00;;;;;;2284969;61;1145;-86
2023/06/21 07:36:28;101534.00;0.34;176.22;0.00;0.00;0.62;;;;;37.00;1.00;;;;;;2285009;61;1411;-86
2023/06/21 07:38:56;140156.00;0.47;242.84;0.00;0.00;0.62;;;;;36.90;1.00;;;;;;2284966;61;1915;-86
2023/06/21 07:41:22;126346.00;0.42;219.03;0.00;0.00;0.62;;;;;37.30;1.00;;;;;;2284919;61;1687;-85
2023/06/21 07:43:49;217579.00;0.73;376.18;26700.00;0.09;46.87;;;;;37.30;1.00;;;;;;2284917;61;1092;-86
2023/06/21 07:46:16;37157.00;0.12;64.97;0.00;0.00;0.62;;;;;37.50;1.00;;;;;;2284935;61;1299;-86
2023/06/21 07:48:45;303836.00;1.01;524.51;0.00;0.00;0.62;;;;;37.50;1.00;;;;;;2284957;61;1105;-87
2023/06/21 07:51:11;1181816.00;3.94;2057.38;103672.00;0.35;179.91;;;;;37.20;1.00;;;;;;2284789;61;1257;-85
2023/06/21 07:53:38;1604634.00;5.35;2841.60;132258.00;0.44;229.22;;;;;36.90;1.00;;;;;;2284908;61;877;-86
2023/06/21 07:56:05;951323.00;3.17;1646.44;149344.00;0.50;258.68;;;;;36.50;1.00;;;;;;2284861;61;1388;-86
2023/06/21 07:58:32;539701.00;1.80;930.21;113783.00;0.38;197.36;;;;;36.20;1.00;;;;;;2284881;61;1875;-85
2023/06/21 08:00:59;446373.00;1.49;769.54;151958.00;0.51;263.18;;;;;35.70;1.00;;;;;;2284828;61;2057;-86
2023/06/21 08:03:26;356710.00;1.19;615.39;55812.00;0.19;97.24;;;;;35.10;1.00;;;;;;2284867;61;1105;-85
2023/06/21 08:05:54;0.00;0.00;0.62;0.00;0.00;0.62;;;;;34.90;1.00;;;;;;2284822;61;1108;-85
2023/06/21 08:08:21;61516.00;0.21;107.10;0.00;0.00;0.62;;;;;34.80;1.00;;;;;;2284772;61;1408;-85
2023/06/21 08:10:48;0.00;0.00;0.62;0.00;0.00;0.62;;;;;34.70;1.00;;;;;;2284800;61;1136;-85
2023/06/21 08:13:18;69731.00;0.23;121.30;0.00;0.00;0.62;;;;;34.30;1.00;;;;;;2284872;61;1539;-84
2023/06/21 08:15:46;600601.00;2.00;1035.26;16922.00;0.06;29.94;;;;;33.80;1.00;;;;;;2284839;61;1149;-85
2023/06/21 08:18:13;327024.00;1.09;564.37;16480.00;0.05;29.17;;;;;33.20;1.00;;;;;;2284797;61;1281;-86
2023/06/21 08:20:41;99116.00;0.33;172.05;0.00;0.00;0.62;;;;;32.80;1.00;;;;;;2284725;61;1919;-84
2023/06/21 08:23:09;52982.00;0.18;92.34;0.00;0.00;0.62;;;;;32.40;1.00;;;;;;2284803;61;1004;-86
2023/06/21 08:25:37;116398.00;0.39;201.87;12794.00;0.04;22.79;;;;;32.00;1.00;;;;;;2284800;61;925;-85
2023/06/21 08:28:04;363331.00;1.21;626.77;21105.00;0.07;37.18;;;;;31.90;1.00;;;;;;2284734;61;1246;-86
2023/06/21 08:30:31;860869.00;2.87;1487.49;79497.00;0.26;138.17;;;;;31.70;1.00;;;;;;2284848;61;1099;-87
2023/06/21 08:32:58;1325179.00;4.42;2318.26;194514.00;0.65;336.48;;;;;31.20;1.00;;;;;;2284785;61;1177;-87
2023/06/21 08:35:24;765216.00;2.55;1320.53;67126.00;0.22;116.79;;;;;30.70;1.00;;;;;;2284819;61;1117;-87
2023/06/21 08:37:56;1527600.00;5.09;2695.16;125512.00;0.42;217.59;;;;;30.90;1.00;;;;;;2284795;61;1399;-87
2023/06/21 08:40:37;123052816.00;410.18;75484768.00;71756.00;0.24;124.79;;;;;30.70;1.00;;;;;;2284859;61;1906;-86
2023/06/21 08:43:10;1147446.00;3.82;1995.48;168678.00;0.56;291.99;;;;;29.80;1.00;;;;;;2284711;61;1613;-87
2023/06/21 08:45:37;1339224.00;4.46;2344.07;189949.00;0.63;328.62;;;;;29.00;1.00;;;;;;2284727;61;1724;-84
2023/06/21 08:48:07;754455.00;2.51;1301.80;37306.00;0.12;65.23;;;;;26.70;3.10;;;;;;2284779;61;1533;-87
2023/06/21 08:50:37;1060371.00;3.53;1839.70;91272.00;0.30;158.50;;;;;24.40;10.00;;;;;;2284769;61;1018;-87
2023/06/21 08:53:08;1032953.00;3.44;1790.92;95597.00;0.32;165.97;;;;;23.80;12.70;;;;;;2284692;61;1113;-87
2023/06/21 08:55:37;921320.00;3.07;1593.60;56693.00;0.19;98.76;;;;;23.90;13.20;;;;;;2284682;60;1034;-85
2023/06/21 08:58:11;1108489.00;3.69;1925.61;130394.00;0.43;226.01;;;;;24.60;8.70;;;;;;2284683;60;1495;-85
2023/06/21 09:00:44;675877.00;2.25;1165.43;39728.00;0.13;69.42;;;;;24.90;5.10;;;;;;2284706;60;2004;-85
2023/06/21 09:03:18;1035258.00;3.45;1795.02;188197.00;0.63;325.60;;;;;25.20;7.20;;;;;;2284505;60;1737;-86
2023/06/21 09:05:50;1497236.00;4.99;2637.92;317055.00;1.06;547.24;;;;;25.40;4.70;;;;;;2284370;60;1153;-84
2023/06/21 09:08:17;1954395.00;6.51;3531.10;396626.00;1.32;684.01;;;;;25.30;8.10;;;;;;2284358;61;1507;-85
2023/06/21 09:10:48;1308931.00;4.36;2288.46;152050.00;0.51;263.34;;;;;24.50;10.20;;;;;;2284534;60;1140;-86
2023/06/21 09:13:15;1236063.00;4.12;2155.56;184937.00;0.62;319.99;;;;;24.50;11.50;;;;;;2284495;60;1156;-85
2023/06/21 09:15:45;1649725.00;5.50;2928.15;452109.00;1.51;779.41;;;;;25.00;9.80;;;;;;2284635;60;1195;-85
2023/06/21 09:18:13;1276423.00;4.25;2229.02;232967.00;0.78;402.65;;;;;25.10;9.70;;;;;;2284627;60;1389;-84
2023/06/21 09:20:42;561729.00;1.87;968.18;110719.00;0.37;192.07;;;;;25.10;9.50;;;;;;2284494;60;1919;-83
2023/06/21 09:23:10;517953.00;1.73;892.74;98198.00;0.33;170.46;;;;;25.40;8.00;;;;;;2284575;60;1096;-84
2023/06/21 09:25:37;223041.00;0.74;385.58;56491.00;0.19;98.41;;;;;25.40;8.00;;;;;;2284470;60;1099;-83
2023/06/21 09:28:05;787853.00;2.63;1359.95;231218.00;0.77;399.64;;;;;25.20;7.40;;;;;;2284750;60;1277;-85
2023/06/21 09:30:32;333998.00;1.11;576.36;25529.00;0.09;44.84;;;;;25.10;8.40;;;;;;2284599;60;1738;-85
2023/06/21 09:32:59;52290.00;0.17;91.15;0.00;0.00;0.62;;;;;25.20;7.30;;;;;;2284739;60;1063;-83
2023/06/21 09:35:26;282608.00;0.94;488.02;0.00;0.00;0.62;;;;;25.50;5.30;;;;;;2284630;60;1187;-85
2023/06/21 09:37:53;1529280.00;5.10;2698.34;198288.00;0.66;342.98;;;;;25.60;5.20;;;;;;2284586;60;1369;-85
2023/06/21 09:40:20;567664.00;1.89;978.42;35920.00;0.12;62.83;;;;;25.90;6.00;;;;;;2284550;60;1996;-84
2023/06/21 09:42:46;300198.00;1.00;518.26;68129.00;0.23;118.53;;;;;26.00;5.20;;;;;;2284530;60;1130;-84
2023/06/21 09:45:20;145268.00;0.48;251.65;46947.00;0.16;81.91;;;;;25.60;5.70;;;;;;2284700;60;1133;-84